< < Back
Terminal Aerodrome Forecast


Current Version              Previous Versions:   1  2  3  4  5  6  7  8  9  

Terminal Aerodrome Forecast

047
FTUS42 KCHS 241900 AAA
TAFCHS
TAF AMD
KCHS 241928Z 2419/2518 22012G17KT P6SM SCT015 BKN020
      TEMPO 2419/2422 5SM SHRA BR BKN015
     FM242200 21006KT P6SM SCT015 BKN035
     FM250800 VRB03KT 5SM -RA BR SCT008 OVC015
     FM251400 33008KT 4SM RA BR SCT005 OVC010=



Latest METAR

496
SAUS80 KWBC 250100 RRA
MTRCHS
METAR KCHS 250056Z 20009KT 2SM RA BR SCT020 BKN035 OVC065 19/18 A2998
RMK AO2 SFC VIS 4 RAB09 SLP150 P0008 T01890178


USA.gov is the U.S. government's official web portal to all federal, state and local government web resources and services.